• Join FlightAware (Why Join?)
  • Login
  • US Flag 
12:38PM EDT


 

Airport Tracker/Info


-or-


 

Live Flight TrackerFlight Track Log ✈ DAL6032 ✈ 16-Apr-2013 ✈ KMEM - KCMH

Flight Track Log - Related Links

Times and Time Zones

All times are in EDT time to prevent confusion due to time zone crossing. See the DAL6032 flight status page for this flight to view local times or setup timezone preferences in your user account.

Time Position Orientation Groundspeed Altitude Reporting Facility
EDT Latitude Longitude Course Direction KTS MPH feet Rate Location/Type
09:59PM 35.0167 -89.9833 North 166 191 900  Level KMEM
10:00PM 34.9833 -90.0000 202° Southwest 184 212 2,100 1,860 Climbing KMEM
10:01PM 34.9667 -90.0667 253° West 280 322 4,300 2,280 Climbing KMEM
10:02PM 35.3850 -90.0027 356° North  Level FlightAware Approximate
10:02PM 35.0500 -90.0500 North 294 338 6,700  Level KMEM
10:03PM 35.4992 -90.0115 356° North  Level FlightAware Approximate
10:03PM 35.1333 -90.0500 360° North 280 322 9,400  Level KMEM
10:04PM 35.6038 -90.0167 North  Level FlightAware Approximate
10:05PM 35.2928 -90.0569 358° North 304 350 13,300  Level Memphis Center
10:06PM 35.3803 -90.0539 North 299 344 15,100 1,800 Climbing Memphis Center
10:07PM 35.4658 -90.0511 North 304 350 16,900 1,620 Climbing Memphis Center
10:08PM 35.5431 -90.0508 360° North 310 357 18,400 1,620 Climbing Memphis Center
10:09PM 35.6328 -90.0481 North 310 357 20,200 1,800 Climbing Memphis Center
10:10PM 35.7244 -90.0475 360° North 299 344 22,100 1,800 Climbing Memphis Center
10:11PM 35.8161 -90.0344 North 305 351 23,800 1,620 Climbing Memphis Center
10:12PM 35.9122 -90.0211 North 320 368 25,400 1,500 Climbing Memphis Center
10:13PM 36.0058 -90.0056 North 332 382 26,800 1,440 Climbing Memphis Center
10:14PM 36.1017 -89.9922 North 338 389 28,300 1,320 Climbing Memphis Center
10:15PM 36.1997 -89.9764 North 343 395 29,500 1,200 Climbing Memphis Center
10:16PM 36.2975 -89.9578 North 343 395 30,800 1,140 Climbing Memphis Center
10:17PM 36.3956 -89.9444 North 353 406 31,800 1,140 Climbing Memphis Center
10:18PM 36.4997 -89.9258 North 363 418 33,100 1,020 Climbing Memphis Center
10:19PM 36.5831 -89.9047 11° North 369 425 33,900 900 Climbing Memphis Center
10:20PM 36.6953 -89.8600 18° North 374 430 34,900 540 Climbing Memphis Center
10:21PM 36.8014 -89.8181 18° North 379 436 35,000  Climbing Memphis Center
10:22PM 36.9097 -89.7758 17° North 395 455 35,000  Level Memphis Center
10:23PM 37.0178 -89.7256 20° North 405 466 35,000  Level Memphis Center
10:24PM 37.1111 -89.6547 31° Northeast 397 457 35,000  Level Memphis Center
10:26PM 37.3000 -89.5108 31° Northeast 400 460 35,000  Level Kansas City Center
10:27PM 37.3981 -89.4356 31° Northeast 407 468 35,000  Level Kansas City Center
10:28PM 37.4942 -89.3656 30° Northeast 403 464 35,000  Level Kansas City Center
10:29PM 37.5889 -89.2939 31° Northeast 398 458 35,000  Level Kansas City Center
10:30PM 37.6808 -89.2256 30° Northeast 390 449 35,000  Level Kansas City Center
10:31PM 37.7742 -89.1556 31° Northeast 387 445 35,000  Level Kansas City Center
10:32PM 37.8778 -89.0786 30° Northeast 390 449 35,000  Level Kansas City Center
10:33PM 37.9658 -89.0114 31° Northeast 394 453 35,000  Level Kansas City Center
10:34PM 38.0542 -88.9197 39° Northeast 408 470 35,000  Level Kansas City Center
10:35PM 38.1286 -88.8142 48° Northeast 408 470 35,000  Level Kansas City Center
10:36PM 38.2031 -88.7106 48° Northeast 404 465 35,000  Level Kansas City Center
10:37PM 38.2750 -88.6064 49° Northeast 393 452 35,000  Level Kansas City Center
10:38PM 38.3506 -88.5017 47° Northeast 396 456 35,000  Level Kansas City Center
10:39PM 38.4267 -88.3931 48° Northeast 404 465 35,000  Level Kansas City Center
10:40PM 38.5058 -88.2819 48° Northeast 414 476 35,000  Level Kansas City Center
10:41PM 38.5817 -88.1661 50° Northeast 422 486 35,000  Level Kansas City Center
10:42PM 38.6392 -88.0014 66° East 417 480 35,000  Level Kansas City Center
10:43PM 38.6869 -87.8700 65° Northeast 409 471 35,000  Level Kansas City Center
10:44PM 38.7147 -87.7942 65° Northeast 403 464 35,000  Level Indianapolis Center
10:45PM 38.7631 -87.6633 65° Northeast 402 463 35,000  Level Indianapolis Center
10:46PM 38.8111 -87.5311 65° Northeast 405 466 35,000  Level Indianapolis Center
10:47PM 38.8639 -87.3958 63° Northeast 417 480 35,000  Level Indianapolis Center
10:48PM 38.9167 -87.2581 64° Northeast 425 489 35,000  Level Indianapolis Center
10:49PM 38.9694 -87.1225 63° Northeast 421 484 35,000  Level Indianapolis Center
10:50PM 39.0289 -86.9914 60° Northeast 421 484 35,000  Level Indianapolis Center
10:51PM 39.1161 -86.9044 38° Northeast 399 459 35,000  Level Indianapolis Center
10:52PM 39.2119 -86.8292 31° Northeast 399 459 35,000  Level Indianapolis Center
10:53PM 39.3086 -86.7572 30° Northeast 400 460 35,000  Level Indianapolis Center
10:54PM 39.4061 -86.6833 30° Northeast 402 463 35,000  Level Indianapolis Center
10:55PM 39.5031 -86.6056 32° Northeast 406 467 35,000  Level Indianapolis Center
10:56PM 39.5878 -86.5039 43° Northeast 423 487 35,000  Level Indianapolis Center
10:57PM 39.6422 -86.3653 63° Northeast 429 494 35,000  Level Indianapolis Center
10:58PM 39.6964 -86.2236 64° Northeast 435 501 35,000 -120 Level Indianapolis Center
10:59PM 39.7506 -86.0833 63° Northeast 432 497 34,800 -720 Descending Indianapolis Center
11:00PM 39.8136 -85.9153 64° Northeast 441 507 33,600 -1,140 Descending Indianapolis Center
11:01PM 39.8708 -85.7678 63° Northeast 449 517 32,600 -1,020 Descending Indianapolis Center
11:02PM 39.9253 -85.6208 64° Northeast 447 514 31,600 -840 Descending Indianapolis Center
11:03PM 39.9786 -85.4783 64° Northeast 438 504 31,000 -300 Descending Indianapolis Center
11:04PM 40.0289 -85.3367 65° Northeast 430 495 31,000 -300 Level Indianapolis Center
11:05PM 40.0611 -85.1819 75° East 441 507 30,400 -840 Descending Indianapolis Center
11:06PM 40.0953 -85.0256 74° East 443 510 29,400 -1,020 Descending Indianapolis Center
11:07PM 40.1258 -84.8692 76° East 441 507 28,400 -1,200 Descending Indianapolis Center
11:08PM 40.1561 -84.7189 75° East 427 491 27,000 -1,440 Descending Indianapolis Center
11:09PM 40.1828 -84.5800 76° East 392 451 25,500 -1,500 Descending Indianapolis Center
11:10PM 40.2108 -84.4450 75° East 383 441 24,000 -1,500 Descending Indianapolis Center
11:11PM 40.2356 -84.3114 76° East 375 432 22,500 -1,440 Descending Indianapolis Center
11:12PM 40.2611 -84.1803 76° East 370 426 21,100 -1,440 Descending Indianapolis Center
11:13PM 40.2861 -84.0508 76° East 365 420 19,600 -1,500 Descending Indianapolis Center
11:14PM 40.3119 -83.9236 75° East 358 412 18,100 -1,380 Descending Indianapolis Center
11:15PM 40.3364 -83.8000 75° East 348 400 16,800 -1,500 Descending Indianapolis Center
11:16PM 40.3489 -83.7269 77° East 340 391 15,800 -1,800 Descending Indianapolis Center
11:16PM 40.3594 -83.6803 73° East 339 390 15,000 -1,800 Descending Indianapolis Center
11:17PM 40.3719 -83.6122 76° East 326 375 14,000 -1,680 Descending Indianapolis Center
11:17PM 40.3822 -83.5653 74° East 327 376 13,300 -1,800 Descending Indianapolis Center
11:18PM 40.3953 -83.4919 77° East 319 367 12,200 -1,800 Descending Indianapolis Center
11:18PM 40.4047 -83.4519 73° East 321 369 11,500 -1,500 Descending Indianapolis Center
11:19PM 40.3881 -83.3869 109° East 312 359 10,700 -1,320 Descending Indianapolis Center
11:19PM 40.3714 -83.3506 121° Southeast 313 360 10,200 -720 Descending Indianapolis Center
11:20PM 40.3425 -83.2911 123° Southeast 300 345 10,000 -300 Descending Indianapolis Center
11:20PM 40.3278 -83.2578 120° Southeast 298 343 9,900 -420 Descending Indianapolis Center
11:21PM 40.2986 -83.2011 124° Southeast 295 339 9,600 -900 Descending Indianapolis Center
11:21PM 40.2844 -83.1686 120° Southeast 288 331 9,000 -1,620 Descending Indianapolis Center
11:22PM 40.2586 -83.1144 122° Southeast 278 320 8,000 -1,620 Descending Indianapolis Center
11:22PM 40.2450 -83.0797 117° Southeast 279 321 7,400 -1,620 Descending Indianapolis Center
11:23PM 40.2208 -83.0253 120° Southeast 281 323 6,400 -1,380 Descending Indianapolis Center
11:23PM 40.2058 -82.9892 119° Southeast 282 325 6,000 -420 Descending Indianapolis Center
11:24PM 40.1844 -82.9419 121° Southeast 266 306 6,000 -120 Level Indianapolis Center
11:24PM 40.1703 -82.9044 116° Southeast 265 305 5,900 -420 Descending Indianapolis Center
11:25PM 40.1503 -82.8589 120° Southeast 256 295 5,600 -840 Descending Indianapolis Center
11:25PM 40.1347 -82.8225 119° Southeast 259 298 5,100 -1,140 Descending Indianapolis Center
11:26PM 40.1156 -82.7842 123° Southeast 256 295 4,600 -1,020 Descending Indianapolis Center
11:26PM 40.1042 -82.7406 109° East 251 289 4,100 -600 Descending Indianapolis Center
11:27PM 40.0936 -82.7053 111° Southeast 224 258 4,000 -240 Descending Indianapolis Center
11:27PM 40.0828 -82.6669 110° East 219 252 3,900  Descending Indianapolis Center
11:28PM 40.0717 -82.6239 109° East 201 231 4,000  Climbing Indianapolis Center
11:28PM 40.0636 -82.5828 104° East 208 239 3,900  Descending Indianapolis Center
11:29PM 40.0439 -82.5692 152° Southeast 195 224 4,000  Climbing Indianapolis Center
11:29PM 40.0161 -82.5606 167° South 187 215 3,900  Descending Indianapolis Center
11:30PM 40.0011 -82.5836 230° Southwest 167 192 4,000  Climbing Indianapolis Center
11:30PM 39.9936 -82.6094 249° West 166 191 3,900  Descending Indianapolis Center
11:31PM 39.9869 -82.6417 255° West 160 184 4,000  Climbing Indianapolis Center
11:31PM 39.9889 -82.6661 276° West 159 183 3,900 -240 Descending Indianapolis Center